Capitol Logistics 2121

Operating for AJT



KIAH
George Bush Intcntl/Houston Airport
Houston, Texas
KCVG
Cincinnati/Northern Kentucky International Airport
Covington, Kentucky

Activity Log

Date Flight Route Aircraft Duration
No Flights Yet

Route Details

Aircraft Information
Primary: Boeing 767-300BDSF
Backup: Boeing 757-200SF
Route Data
Distance: 758nm
Duration: 2h 02m
Recm'd Route: CHCLL5 IIU TIIDE UJM JODOX DHART PLANB SKNRD4
Origin Wx: KIAH 141853Z 36006KT 6SM HZ BKN008 OVC016 26/23 A2994 RMK AO2 SLP137 T02610228 $
Dest. Wx: KCVG 141852Z 22006KT 10SM FEW041 BKN130 BKN250 14/03 A3005 RMK AO2 SLP171 T01440033
Notes: